createdAt,value
2022-11-13T00:01:25.736Z,68.60
2022-11-13T00:03:53.432Z,59.80
2022-11-13T00:06:21.628Z,65.40
2022-11-13T00:08:54.542Z,62.30
2022-11-13T00:11:22.407Z,63.90
2022-11-13T00:13:50.446Z,61.80
2022-11-13T00:16:20.882Z,66.20
2022-11-13T00:18:48.954Z,65.20
2022-11-13T00:21:19.534Z,70.00
2022-11-13T00:23:47.884Z,68.90
2022-11-13T00:26:18.483Z,73.00
2022-11-13T00:28:46.466Z,72.20
2022-11-13T00:31:16.368Z,72.60
2022-11-13T00:36:32.473Z,74.50
2022-11-13T00:39:00.243Z,68.20
2022-11-13T00:41:28.422Z,65.30
2022-11-13T00:43:56.170Z,63.30
2022-11-13T00:46:23.946Z,60.80
2022-11-13T00:48:51.715Z,60.20
2022-11-13T00:51:19.878Z,60.40
2022-11-13T00:53:48.049Z,55.20
2022-11-13T00:56:16.017Z,51.10
2022-11-13T00:58:44.002Z,60.30
2022-11-13T01:01:15.197Z,54.00
2022-11-13T01:03:43.817Z,55.60
2022-11-13T01:06:20.072Z,56.60
2022-11-13T01:08:48.764Z,57.60
2022-11-13T01:11:22.877Z,59.50
2022-11-13T01:13:52.385Z,59.00
2022-11-13T01:16:24.956Z,61.80
2022-11-13T01:18:57.232Z,58.90
2022-11-13T01:21:27.798Z,56.60
2022-11-13T01:23:56.682Z,57.30
2022-11-13T01:26:28.011Z,54.00
2022-11-13T01:28:57.602Z,52.90
2022-11-13T01:31:28.644Z,51.50
2022-11-13T01:33:58.642Z,52.00
2022-11-13T01:36:29.076Z,58.30
2022-11-13T01:38:57.971Z,57.50
2022-11-13T01:41:30.378Z,54.80
2022-11-13T01:43:59.642Z,56.80
2022-11-13T01:46:36.521Z,59.80
2022-11-13T01:49:10.430Z,59.90
2022-11-13T01:52:00.163Z,61.50
2022-11-13T01:54:53.433Z,77.00
2022-11-13T01:57:22.198Z,73.90
2022-11-13T01:59:57.075Z,81.10
2022-11-13T02:02:24.813Z,67.30
2022-11-13T02:04:53.433Z,65.50
2022-11-13T02:07:23.499Z,68.80
2022-11-13T02:09:56.148Z,65.40
2022-11-13T02:12:37.108Z,57.70
2022-11-13T02:15:07.355Z,64.60
2022-11-13T02:18:02.939Z,58.20
2022-11-13T02:20:55.187Z,60.80
2022-11-13T02:23:46.186Z,58.80
2022-11-13T02:26:13.932Z,55.80
2022-11-13T02:28:41.629Z,58.80
2022-11-13T02:31:12.553Z,54.50
2022-11-13T02:33:40.723Z,58.70
2022-11-13T02:36:10.961Z,57.00
2022-11-13T02:38:41.790Z,59.20
2022-11-13T02:41:09.719Z,60.20
2022-11-13T02:43:37.723Z,61.60
2022-11-13T02:46:05.933Z,53.40
2022-11-13T02:48:33.851Z,59.50
2022-11-13T02:51:01.811Z,55.80
2022-11-13T02:53:29.553Z,57.70
2022-11-13T02:55:57.514Z,53.40
2022-11-13T02:58:25.525Z,57.80
2022-11-13T03:00:54.144Z,54.00
2022-11-13T03:03:48.123Z,57.10
2022-11-13T03:06:09.537Z,54.40
2022-11-13T03:08:37.697Z,54.50
2022-11-13T03:11:11.983Z,55.30
2022-11-13T03:16:13.567Z,54.90
2022-11-13T03:21:14.959Z,50.10
2022-11-13T03:23:47.596Z,57.40
2022-11-13T03:26:17.858Z,52.90
2022-11-13T03:28:47.429Z,54.10
2022-11-13T03:31:16.872Z,52.40
2022-11-13T03:33:44.638Z,54.40
2022-11-13T03:36:15.379Z,52.50
2022-11-13T03:38:43.303Z,52.30
2022-11-13T03:41:15.913Z,54.80
2022-11-13T03:43:43.865Z,41.10
2022-11-13T03:46:13.033Z,54.50
2022-11-13T03:48:42.345Z,69.40
2022-11-13T03:51:10.114Z,53.80
2022-11-13T03:53:37.846Z,52.90
2022-11-13T03:56:05.944Z,52.40
2022-11-13T03:58:36.282Z,57.40
2022-11-13T04:01:07.783Z,53.00
2022-11-13T04:03:35.767Z,54.40
2022-11-13T04:06:03.678Z,58.80
2022-11-13T04:08:31.575Z,57.20
2022-11-13T04:11:12.090Z,58.00
2022-11-13T04:13:40.231Z,51.30
2022-11-13T04:16:09.529Z,54.50
2022-11-13T04:18:37.259Z,56.70
2022-11-13T04:21:07.129Z,57.30
2022-11-13T04:23:35.017Z,55.90
2022-11-13T04:26:03.042Z,54.40
2022-11-13T04:28:31.138Z,56.10
2022-11-13T04:31:00.647Z,62.40
2022-11-13T04:33:28.394Z,62.20
2022-11-13T04:35:56.313Z,59.70
2022-11-13T04:38:24.012Z,61.90
2022-11-13T04:41:11.917Z,62.00
2022-11-13T04:43:39.668Z,63.10
2022-11-13T04:46:09.048Z,66.20
2022-11-13T04:48:37.035Z,62.90
2022-11-13T04:51:08.124Z,65.40
2022-11-13T04:53:36.847Z,67.80
2022-11-13T04:56:04.824Z,72.30
2022-11-13T04:58:32.853Z,63.80
2022-11-13T05:01:00.615Z,65.90
2022-11-13T05:03:28.583Z,66.90
2022-11-13T05:06:09.144Z,66.00
2022-11-13T05:08:38.469Z,64.70
2022-11-13T05:11:06.749Z,65.10
2022-11-13T05:13:37.108Z,63.20
2022-11-13T05:16:12.211Z,56.30
2022-11-13T05:18:41.977Z,66.00
2022-11-13T05:21:11.828Z,61.20
2022-11-13T05:23:40.184Z,59.30
2022-11-13T05:26:13.278Z,59.40
2022-11-13T05:28:41.278Z,59.90
2022-11-13T05:31:14.728Z,57.90
2022-11-13T05:36:16.630Z,54.20
2022-11-13T05:38:46.447Z,52.00
2022-11-13T05:41:21.452Z,55.90
2022-11-13T05:43:56.536Z,57.30
2022-11-13T05:46:31.242Z,54.70
2022-11-13T05:49:02.239Z,55.70
2022-11-13T05:51:34.287Z,58.20
2022-11-13T05:54:03.852Z,57.60
2022-11-13T05:56:36.049Z,58.40
2022-11-13T05:59:06.252Z,52.10
2022-11-13T06:01:38.689Z,58.70
2022-11-13T06:04:09.840Z,61.00
2022-11-13T06:06:39.307Z,58.20
2022-11-13T06:09:08.959Z,59.00
2022-11-13T06:11:36.889Z,58.30
2022-11-13T06:14:04.776Z,54.40
2022-11-13T06:16:39.002Z,58.70
2022-11-13T06:19:10.492Z,57.40
2022-11-13T06:21:41.483Z,59.30
2022-11-13T06:24:13.896Z,56.30
2022-11-13T06:26:43.254Z,58.10
2022-11-13T06:29:13.363Z,56.30
2022-11-13T06:31:41.114Z,54.80
2022-11-13T06:34:10.403Z,58.00
2022-11-13T06:36:39.702Z,55.50
2022-11-13T06:39:09.968Z,59.70
2022-11-13T06:41:40.097Z,56.80
2022-11-13T06:44:08.062Z,59.10
2022-11-13T06:46:36.093Z,59.30
2022-11-13T06:49:03.908Z,55.70
2022-11-13T06:51:34.010Z,53.20
2022-11-13T06:54:01.730Z,58.20
2022-11-13T06:56:29.481Z,51.70
2022-11-13T06:58:57.508Z,57.70
2022-11-13T07:01:27.634Z,57.40
2022-11-13T07:03:58.613Z,57.30
2022-11-13T07:06:27.905Z,57.70
2022-11-13T07:08:55.926Z,59.30
2022-11-13T07:11:25.470Z,59.40
2022-11-13T07:13:53.394Z,58.10
2022-11-13T07:16:21.144Z,55.90
2022-11-13T07:18:53.622Z,57.60
2022-11-13T07:21:23.974Z,55.50
2022-11-13T07:23:53.389Z,62.20
2022-11-13T07:26:22.686Z,51.80
2022-11-13T07:28:50.638Z,56.50
2022-11-13T07:31:19.558Z,54.80
2022-11-13T07:33:52.034Z,55.30
2022-11-13T07:36:19.770Z,54.00
2022-11-13T07:38:47.557Z,52.00
2022-11-13T07:41:15.315Z,52.00
2022-11-13T07:43:43.242Z,53.80
2022-11-13T07:46:12.376Z,56.50
2022-11-13T07:48:40.144Z,54.00
2022-11-13T07:51:07.896Z,58.60
2022-11-13T07:53:36.487Z,54.20
2022-11-13T07:56:06.505Z,52.90
2022-11-13T07:58:34.601Z,54.90
2022-11-13T08:01:06.286Z,46.90
2022-11-13T08:03:35.939Z,51.60
2022-11-13T08:06:09.263Z,53.90
2022-11-13T08:08:37.006Z,56.40
2022-11-13T08:11:08.925Z,53.40
2022-11-13T08:13:38.772Z,50.90
2022-11-13T08:16:09.042Z,52.00
2022-11-13T08:18:37.078Z,50.00
2022-11-13T08:21:11.868Z,52.90
2022-11-13T08:23:44.058Z,52.80
2022-11-13T08:26:12.040Z,52.70
2022-11-13T08:28:40.784Z,48.20
2022-11-13T08:31:15.002Z,47.10
2022-11-13T08:33:44.752Z,51.80
2022-11-13T08:36:12.583Z,51.30
2022-11-13T08:38:40.381Z,53.40
2022-11-13T08:41:09.573Z,50.00
2022-11-13T08:43:40.927Z,51.80
2022-11-13T08:46:08.692Z,53.20
2022-11-13T08:48:38.909Z,55.10
2022-11-13T08:51:06.688Z,49.80
2022-11-13T08:53:34.499Z,52.20
2022-11-13T08:56:02.748Z,58.30
2022-11-13T08:58:31.060Z,55.60
2022-11-13T09:01:05.182Z,58.30
2022-11-13T09:03:33.216Z,53.30
2022-11-13T09:06:07.138Z,50.70
2022-11-13T09:08:36.544Z,52.60
2022-11-13T09:11:06.896Z,50.90
2022-11-13T09:13:41.209Z,54.00
2022-11-13T09:16:13.357Z,54.10
2022-11-13T09:18:41.354Z,52.30
2022-11-13T09:21:09.319Z,52.30
2022-11-13T09:23:38.718Z,49.60
2022-11-13T09:26:06.480Z,49.50
2022-11-13T09:28:34.493Z,49.10
2022-11-13T09:31:08.266Z,52.00
2022-11-13T09:33:36.525Z,53.30
2022-11-13T09:36:11.862Z,52.30
2022-11-13T09:38:42.096Z,48.70
2022-11-13T09:41:17.434Z,48.10
2022-11-13T09:43:59.231Z,48.80
2022-11-13T09:46:41.677Z,50.60
2022-11-13T09:49:09.356Z,55.40
2022-11-13T09:51:40.850Z,52.10
2022-11-13T09:54:14.440Z,50.70
2022-11-13T09:59:37.288Z,51.30
2022-11-13T10:02:08.065Z,53.20
2022-11-13T10:05:00.388Z,47.70
2022-11-13T10:07:47.049Z,52.10
2022-11-13T10:10:48.279Z,55.90
2022-11-13T10:13:34.116Z,55.80
2022-11-13T10:16:35.075Z,53.90
2022-11-13T10:19:40.645Z,55.10
2022-11-13T10:22:52.687Z,54.30
2022-11-13T10:25:28.651Z,53.40
2022-11-13T10:28:35.383Z,52.10
2022-11-13T10:30:59.298Z,51.10
2022-11-13T10:33:27.224Z,54.80
2022-11-13T10:36:16.615Z,55.20
2022-11-13T10:38:50.789Z,51.00
2022-11-13T10:41:22.268Z,57.70
2022-11-13T10:43:59.603Z,56.20
2022-11-13T10:46:30.825Z,55.20
2022-11-13T10:49:30.891Z,59.10
2022-11-13T10:52:02.611Z,55.10
2022-11-13T10:54:34.163Z,56.80
2022-11-13T10:57:20.909Z,53.60
2022-11-13T10:59:48.917Z,56.90
2022-11-13T11:02:25.056Z,54.70
2022-11-13T11:05:24.754Z,56.70
2022-11-13T11:07:56.290Z,52.40
2022-11-13T11:10:34.510Z,51.50
2022-11-13T11:13:11.804Z,57.40
2022-11-13T11:15:48.752Z,53.50
2022-11-13T11:18:32.808Z,55.50
2022-11-13T11:21:07.977Z,51.90
2022-11-13T11:23:35.634Z,52.40
2022-11-13T11:26:17.518Z,59.40
2022-11-13T11:28:52.687Z,57.00
2022-11-13T11:31:30.276Z,55.70
2022-11-13T11:34:15.944Z,59.30
2022-11-13T11:36:58.145Z,65.60
2022-11-13T11:39:43.219Z,55.90
2022-11-13T11:42:49.725Z,59.60
2022-11-13T11:45:31.239Z,59.60
2022-11-13T11:48:06.140Z,56.90
2022-11-13T11:51:03.773Z,58.30
2022-11-13T11:53:57.224Z,58.30
2022-11-13T11:56:37.534Z,60.90
2022-11-13T11:59:53.807Z,56.70
2022-11-13T12:03:05.218Z,57.50
2022-11-13T12:06:17.459Z,58.10
2022-11-13T12:08:51.070Z,63.50
2022-11-13T12:14:25.831Z,59.40
2022-11-13T12:17:30.242Z,61.90
2022-11-13T12:20:17.286Z,62.10
2022-11-13T12:22:55.346Z,61.90
2022-11-13T12:25:46.476Z,64.40
2022-11-13T12:28:29.179Z,62.90
2022-11-13T12:31:39.180Z,59.30
2022-11-13T12:34:45.216Z,64.70
2022-11-13T12:37:23.352Z,63.90
2022-11-13T12:39:58.443Z,60.60
2022-11-13T12:42:44.946Z,63.00
2022-11-13T12:45:36.832Z,65.00
2022-11-13T12:48:16.851Z,65.00
2022-11-13T12:51:00.485Z,60.10
2022-11-13T12:53:32.107Z,55.00
2022-11-13T12:56:05.615Z,52.60
2022-11-13T13:01:17.997Z,58.20
2022-11-13T13:04:24.233Z,57.80
2022-11-13T13:07:25.504Z,55.40
2022-11-13T13:10:21.655Z,55.40
2022-11-13T13:13:02.831Z,56.60
2022-11-13T13:15:34.569Z,48.60
2022-11-13T13:18:16.741Z,48.80
2022-11-13T13:20:56.658Z,49.30
2022-11-13T13:23:41.165Z,46.30
2022-11-13T13:26:32.543Z,48.00
2022-11-13T13:29:19.042Z,41.30
2022-11-13T13:32:08.714Z,43.10
2022-11-13T13:35:14.259Z,44.30
2022-11-13T13:38:03.536Z,43.90
2022-11-13T13:40:43.767Z,45.20
2022-11-13T13:43:43.627Z,42.80
2022-11-13T13:46:28.289Z,44.80
2022-11-13T13:49:14.616Z,48.00
2022-11-13T13:51:48.421Z,43.90
2022-11-13T13:54:23.653Z,50.50
2022-11-13T13:56:54.734Z,45.40
2022-11-13T13:59:30.491Z,49.30
2022-11-13T14:02:02.017Z,44.80
2022-11-13T14:04:46.022Z,44.10
2022-11-13T14:07:24.213Z,47.50
2022-11-13T14:10:30.547Z,48.70
2022-11-13T14:12:58.358Z,46.70
2022-11-13T14:15:35.936Z,48.00
2022-11-13T14:18:17.667Z,44.00
2022-11-13T14:20:53.286Z,45.50
2022-11-13T14:23:37.549Z,47.00
2022-11-13T14:26:14.607Z,44.40
2022-11-13T14:29:04.591Z,44.70
2022-11-13T14:31:38.357Z,46.60
2022-11-13T14:34:14.189Z,48.60
2022-11-13T14:36:44.984Z,45.70
2022-11-13T14:39:26.302Z,55.10
2022-11-13T14:41:59.615Z,56.20
2022-11-13T14:44:35.244Z,56.20
2022-11-13T14:47:39.834Z,56.10
2022-11-13T14:50:29.073Z,59.00
2022-11-13T14:53:08.581Z,54.40
2022-11-13T14:55:53.033Z,55.20
2022-11-13T14:58:29.516Z,59.70
2022-11-13T15:01:00.506Z,63.80
2022-11-13T15:03:28.878Z,68.00
2022-11-13T15:05:59.409Z,71.70
2022-11-13T15:08:30.934Z,68.30
2022-11-13T15:10:58.710Z,68.80
2022-11-13T15:13:27.598Z,66.90
2022-11-13T15:15:55.795Z,67.30
2022-11-13T15:18:27.051Z,69.60
2022-11-13T15:20:55.418Z,69.70
2022-11-13T15:23:26.782Z,68.20
2022-11-13T15:25:54.991Z,73.20
2022-11-13T15:28:23.046Z,72.10
2022-11-13T15:30:50.803Z,73.40
2022-11-13T15:33:18.541Z,73.20
2022-11-13T15:35:47.915Z,83.10
2022-11-13T15:38:16.210Z,83.70
2022-11-13T15:40:43.972Z,77.40
2022-11-13T15:43:19.321Z,60.80
2022-11-13T15:45:47.042Z,61.60
2022-11-13T15:48:14.843Z,61.70
2022-11-13T15:50:42.623Z,58.10
2022-11-13T15:53:13.524Z,63.00
2022-11-13T15:55:43.456Z,66.10
2022-11-13T15:58:18.314Z,78.10
2022-11-13T16:00:46.119Z,85.40
2022-11-13T16:03:16.708Z,82.30
2022-11-13T16:05:44.520Z,74.50
2022-11-13T16:08:16.274Z,70.20
2022-11-13T16:10:44.299Z,72.90
2022-11-13T16:13:12.893Z,76.80
2022-11-13T16:15:40.858Z,84.30
2022-11-13T16:18:24.025Z,78.10
2022-11-13T16:20:51.779Z,82.10
2022-11-13T16:23:19.812Z,81.80
2022-11-13T16:25:53.065Z,91.70
2022-11-13T16:28:20.813Z,93.60
2022-11-13T16:30:52.296Z,91.20
2022-11-13T16:33:20.248Z,85.40
2022-11-13T16:35:49.428Z,82.10
2022-11-13T16:38:17.215Z,95.00
2022-11-13T16:40:48.668Z,90.00
2022-11-13T16:43:18.249Z,89.80
2022-11-13T16:45:48.748Z,88.70
2022-11-13T16:48:16.784Z,88.90
2022-11-13T16:50:44.529Z,82.90
2022-11-13T16:53:12.283Z,80.50
2022-11-13T16:55:40.221Z,78.40
2022-11-13T16:58:14.813Z,84.50
2022-11-13T17:00:42.844Z,94.50
2022-11-13T17:03:10.573Z,91.20
2022-11-13T17:05:38.339Z,91.20
2022-11-13T17:08:06.633Z,87.80
2022-11-13T17:10:34.637Z,78.40
2022-11-13T17:13:03.051Z,77.10
2022-11-13T17:15:32.414Z,76.40
2022-11-13T17:18:00.252Z,83.40
2022-11-13T17:20:28.109Z,74.70
2022-11-13T17:22:56.122Z,75.50
2022-11-13T17:25:28.153Z,76.00
2022-11-13T17:27:56.004Z,75.70
2022-11-13T17:30:23.852Z,74.10
2022-11-13T17:32:51.593Z,84.80
2022-11-13T17:35:19.305Z,82.50
2022-11-13T17:37:47.067Z,83.00
2022-11-13T17:40:17.131Z,82.00
2022-11-13T17:42:44.946Z,80.70
2022-11-13T17:45:12.672Z,78.30
2022-11-13T17:47:40.451Z,76.50
2022-11-13T17:50:08.533Z,81.20
2022-11-13T17:52:36.375Z,78.90
2022-11-13T17:55:07.930Z,78.70
2022-11-13T17:57:35.683Z,77.70
2022-11-13T18:00:10.071Z,83.60
2022-11-13T18:02:40.668Z,83.60
2022-11-13T18:05:10.794Z,82.10
2022-11-13T18:07:42.873Z,89.90
2022-11-13T18:10:11.351Z,88.00
2022-11-13T18:12:39.282Z,92.10
2022-11-13T18:15:09.409Z,86.10
2022-11-13T18:17:37.164Z,92.60
2022-11-13T18:20:05.377Z,92.60
2022-11-13T18:22:33.137Z,89.90
2022-11-13T18:25:05.975Z,88.10
2022-11-13T18:27:33.918Z,95.40
2022-11-13T18:30:02.115Z,97.60
2022-11-13T18:32:29.872Z,101.30
2022-11-13T18:35:00.084Z,95.60
2022-11-13T18:37:27.876Z,95.80
2022-11-13T18:39:55.720Z,99.50
2022-11-13T18:42:23.685Z,99.00
2022-11-13T18:44:51.654Z,101.30
2022-11-13T18:47:19.405Z,95.10
2022-11-13T18:49:47.680Z,97.80
2022-11-13T18:52:17.549Z,92.30
2022-11-13T18:54:45.383Z,98.40
2022-11-13T18:57:13.425Z,97.50
2022-11-13T18:59:41.573Z,91.80
2022-11-13T19:02:13.947Z,94.80
2022-11-13T19:04:41.812Z,95.50
2022-11-13T19:07:12.721Z,99.80
2022-11-13T19:09:48.028Z,103.60
2022-11-13T19:12:18.544Z,95.70
2022-11-13T19:14:46.299Z,100.10
2022-11-13T19:17:14.351Z,99.10
2022-11-13T19:19:45.420Z,96.70
2022-11-13T19:22:13.376Z,98.20
2022-11-13T19:24:41.110Z,103.90
2022-11-13T19:27:10.682Z,102.20
2022-11-13T19:29:40.801Z,101.90
2022-11-13T19:32:08.619Z,98.20
2022-11-13T19:34:36.543Z,101.70
2022-11-13T19:37:04.344Z,100.50
2022-11-13T19:39:32.353Z,102.00
2022-11-13T19:42:00.359Z,100.10
2022-11-13T19:44:28.124Z,99.70
2022-11-13T19:46:55.976Z,95.40
2022-11-13T19:49:23.702Z,100.50
2022-11-13T19:51:55.061Z,105.60
2022-11-13T19:54:22.821Z,95.60
2022-11-13T19:56:53.343Z,96.50
2022-11-13T19:59:21.061Z,94.10
2022-11-13T20:01:51.714Z,96.00
2022-11-13T20:04:21.272Z,100.40
2022-11-13T20:06:50.791Z,92.20
2022-11-13T20:09:18.578Z,94.60
2022-11-13T20:11:48.759Z,85.10
2022-11-13T20:14:16.815Z,85.40
2022-11-13T20:16:44.544Z,90.00
2022-11-13T20:19:12.281Z,88.20
2022-11-13T20:21:44.005Z,88.90
2022-11-13T20:24:13.678Z,84.30
2022-11-13T20:26:45.549Z,91.40
2022-11-13T20:29:13.329Z,88.70
2022-11-13T20:31:41.077Z,85.30
2022-11-13T20:34:08.888Z,85.70
2022-11-13T20:36:36.642Z,96.70
2022-11-13T20:39:08.997Z,97.00
2022-11-13T20:41:39.118Z,88.50
2022-11-13T20:44:07.135Z,89.00
2022-11-13T20:46:35.858Z,93.00
2022-11-13T20:49:05.339Z,82.70
2022-11-13T20:51:33.258Z,93.80
2022-11-13T20:54:04.373Z,92.00
2022-11-13T20:56:32.170Z,85.90
2022-11-13T20:59:00.006Z,88.20
2022-11-13T21:01:29.041Z,90.90
2022-11-13T21:04:00.200Z,89.90
2022-11-13T21:06:28.936Z,87.20
2022-11-13T21:08:58.460Z,87.10
2022-11-13T21:11:26.225Z,86.20
2022-11-13T21:13:56.613Z,88.30
2022-11-13T21:16:28.135Z,89.80
2022-11-13T21:18:58.597Z,83.90
2022-11-13T21:21:29.756Z,85.00
2022-11-13T21:23:59.633Z,85.50
2022-11-13T21:26:30.322Z,82.80
2022-11-13T21:29:00.857Z,85.50
2022-11-13T21:31:28.655Z,84.30
2022-11-13T21:33:57.599Z,86.10
2022-11-13T21:36:28.990Z,85.70
2022-11-13T21:38:59.927Z,86.60
2022-11-13T21:41:27.803Z,83.40
2022-11-13T21:43:55.466Z,86.70
2022-11-13T21:46:25.127Z,91.80
2022-11-13T21:49:00.651Z,93.20
2022-11-13T21:51:33.458Z,88.50
2022-11-13T21:54:03.130Z,103.90
2022-11-13T21:56:34.597Z,98.60
2022-11-13T21:59:04.007Z,99.80
2022-11-13T22:01:38.120Z,94.00
2022-11-13T22:04:08.982Z,86.10
2022-11-13T22:06:37.120Z,86.10
2022-11-13T22:09:14.763Z,87.60
2022-11-13T22:11:42.605Z,87.60
2022-11-13T22:14:14.509Z,84.80
2022-11-13T22:16:47.394Z,86.20
2022-11-13T22:19:22.613Z,77.80
2022-11-13T22:21:55.144Z,81.30
2022-11-13T22:24:22.957Z,82.00
2022-11-13T22:26:50.719Z,84.40
2022-11-13T22:29:18.511Z,87.40
2022-11-13T22:31:49.795Z,80.40
2022-11-13T22:34:19.527Z,80.60
2022-11-13T22:36:50.367Z,79.70
2022-11-13T22:39:22.209Z,74.70
2022-11-13T22:41:49.937Z,85.00
2022-11-13T22:44:17.623Z,80.60
2022-11-13T22:46:45.455Z,82.10
2022-11-13T22:49:16.599Z,79.50
2022-11-13T22:51:44.327Z,78.40
2022-11-13T22:54:15.656Z,79.50
2022-11-13T22:56:44.066Z,74.90
2022-11-13T22:59:15.366Z,78.70
2022-11-13T23:01:43.079Z,71.20
2022-11-13T23:04:15.895Z,75.90
2022-11-13T23:06:43.818Z,70.20
2022-11-13T23:09:14.679Z,70.60
2022-11-13T23:11:47.101Z,77.80
2022-11-13T23:14:18.821Z,75.40
2022-11-13T23:16:48.927Z,75.50
2022-11-13T23:19:16.695Z,69.00
2022-11-13T23:21:49.049Z,69.00
2022-11-13T23:24:16.758Z,72.70
2022-11-13T23:26:44.523Z,70.40
2022-11-13T23:29:13.750Z,74.40
2022-11-13T23:31:41.439Z,66.40
2022-11-13T23:34:09.169Z,67.50
2022-11-13T23:36:36.932Z,66.70
2022-11-13T23:39:04.693Z,69.50
2022-11-13T23:41:33.136Z,71.80
2022-11-13T23:44:09.459Z,67.50
2022-11-13T23:46:37.608Z,64.50
2022-11-13T23:49:05.322Z,69.70
2022-11-13T23:51:33.104Z,64.20
2022-11-13T23:54:00.869Z,68.80
2022-11-13T23:56:28.626Z,64.20
2022-11-13T23:58:56.379Z,63.00
